sensor_id;sensor_type;location;lat;lon;timestamp;P1;durP1;ratioP1;P2;durP2;ratioP2
42192;SDS011;52467;40.114;18.306;2023-04-15T00:00:26;7.53;;;1.70;;
42192;SDS011;52467;40.114;18.306;2023-04-15T00:02:54;9.55;;;1.70;;
42192;SDS011;52467;40.114;18.306;2023-04-15T00:05:22;7.80;;;1.42;;
42192;SDS011;52467;40.114;18.306;2023-04-15T00:07:49;15.90;;;2.10;;
42192;SDS011;52467;40.114;18.306;2023-04-15T00:10:17;10.15;;;1.83;;
42192;SDS011;52467;40.114;18.306;2023-04-15T00:12:44;13.45;;;2.30;;
42192;SDS011;52467;40.114;18.306;2023-04-15T00:15:12;11.27;;;1.83;;
42192;SDS011;52467;40.114;18.306;2023-04-15T00:17:39;12.13;;;1.90;;
42192;SDS011;52467;40.114;18.306;2023-04-15T00:20:06;5.90;;;1.40;;
42192;SDS011;52467;40.114;18.306;2023-04-15T00:22:34;9.70;;;1.65;;
42192;SDS011;52467;40.114;18.306;2023-04-15T00:25:02;16.67;;;2.47;;
42192;SDS011;52467;40.114;18.306;2023-04-15T00:27:29;11.30;;;2.28;;
42192;SDS011;52467;40.114;18.306;2023-04-15T00:29:57;10.82;;;1.58;;
42192;SDS011;52467;40.114;18.306;2023-04-15T00:32:24;9.40;;;2.05;;
42192;SDS011;52467;40.114;18.306;2023-04-15T00:34:52;16.30;;;1.93;;
42192;SDS011;52467;40.114;18.306;2023-04-15T00:37:19;8.80;;;2.22;;
42192;SDS011;52467;40.114;18.306;2023-04-15T00:39:46;13.50;;;2.10;;
42192;SDS011;52467;40.114;18.306;2023-04-15T00:42:14;8.77;;;1.95;;
42192;SDS011;52467;40.114;18.306;2023-04-15T00:44:42;16.17;;;2.53;;
42192;SDS011;52467;40.114;18.306;2023-04-15T00:47:09;13.32;;;2.05;;
42192;SDS011;52467;40.114;18.306;2023-04-15T00:49:37;11.80;;;1.90;;
42192;SDS011;52467;40.114;18.306;2023-04-15T00:52:04;14.70;;;2.25;;
42192;SDS011;52467;40.114;18.306;2023-04-15T00:54:32;5.85;;;1.90;;
42192;SDS011;52467;40.114;18.306;2023-04-15T00:56:59;10.02;;;1.90;;
42192;SDS011;52467;40.114;18.306;2023-04-15T00:59:27;10.30;;;1.73;;
42192;SDS011;52467;40.114;18.306;2023-04-15T01:01:55;11.25;;;1.92;;
42192;SDS011;52467;40.114;18.306;2023-04-15T01:04:22;12.13;;;2.17;;
42192;SDS011;52467;40.114;18.306;2023-04-15T01:06:50;9.77;;;2.58;;
42192;SDS011;52467;40.114;18.306;2023-04-15T01:09:17;10.90;;;2.10;;
42192;SDS011;52467;40.114;18.306;2023-04-15T01:11:45;9.73;;;2.25;;
42192;SDS011;52467;40.114;18.306;2023-04-15T01:14:12;12.27;;;1.80;;
42192;SDS011;52467;40.114;18.306;2023-04-15T01:16:40;11.27;;;2.10;;
42192;SDS011;52467;40.114;18.306;2023-04-15T01:19:08;10.07;;;2.00;;
42192;SDS011;52467;40.114;18.306;2023-04-15T01:21:36;11.73;;;2.03;;
42192;SDS011;52467;40.114;18.306;2023-04-15T01:24:07;11.37;;;1.70;;
42192;SDS011;52467;40.114;18.306;2023-04-15T01:26:38;15.50;;;2.08;;
42192;SDS011;52467;40.114;18.306;2023-04-15T01:29:07;13.75;;;3.20;;
42192;SDS011;52467;40.114;18.306;2023-04-15T01:31:34;11.65;;;2.53;;
42192;SDS011;52467;40.114;18.306;2023-04-15T01:34:20;11.90;;;3.60;;
42192;SDS011;52467;40.114;18.306;2023-04-15T01:37:10;8.43;;;2.65;;
42192;SDS011;52467;40.114;18.306;2023-04-15T01:39:38;11.75;;;2.30;;
42192;SDS011;52467;40.114;18.306;2023-04-15T01:42:06;10.38;;;2.10;;
42192;SDS011;52467;40.114;18.306;2023-04-15T01:44:34;14.10;;;2.37;;
42192;SDS011;52467;40.114;18.306;2023-04-15T01:47:03;11.77;;;2.83;;
42192;SDS011;52467;40.114;18.306;2023-04-15T01:49:32;14.07;;;2.20;;
42192;SDS011;52467;40.114;18.306;2023-04-15T01:52:01;12.50;;;1.70;;
42192;SDS011;52467;40.114;18.306;2023-04-15T01:54:29;8.82;;;1.98;;
42192;SDS011;52467;40.114;18.306;2023-04-15T01:56:58;11.75;;;1.85;;
42192;SDS011;52467;40.114;18.306;2023-04-15T01:59:27;9.95;;;2.13;;
42192;SDS011;52467;40.114;18.306;2023-04-15T02:01:58;7.88;;;1.50;;
42192;SDS011;52467;40.114;18.306;2023-04-15T02:04:28;9.10;;;2.20;;
42192;SDS011;52467;40.114;18.306;2023-04-15T02:07:00;11.90;;;1.65;;
42192;SDS011;52467;40.114;18.306;2023-04-15T02:09:28;10.82;;;1.90;;
42192;SDS011;52467;40.114;18.306;2023-04-15T02:11:57;9.77;;;1.70;;
42192;SDS011;52467;40.114;18.306;2023-04-15T02:14:28;13.07;;;2.22;;
42192;SDS011;52467;40.114;18.306;2023-04-15T02:16:57;9.63;;;1.87;;
42192;SDS011;52467;40.114;18.306;2023-04-15T02:19:34;12.35;;;2.00;;
42192;SDS011;52467;40.114;18.306;2023-04-15T02:22:03;10.30;;;1.98;;
42192;SDS011;52467;40.114;18.306;2023-04-15T02:24:32;9.32;;;1.73;;
42192;SDS011;52467;40.114;18.306;2023-04-15T02:27:02;11.25;;;2.28;;
42192;SDS011;52467;40.114;18.306;2023-04-15T02:29:31;7.50;;;1.42;;
42192;SDS011;52467;40.114;18.306;2023-04-15T02:32:01;11.43;;;1.50;;
42192;SDS011;52467;40.114;18.306;2023-04-15T02:34:29;13.90;;;1.95;;
42192;SDS011;52467;40.114;18.306;2023-04-15T02:37:01;9.33;;;1.70;;
42192;SDS011;52467;40.114;18.306;2023-04-15T02:39:30;11.35;;;2.70;;
42192;SDS011;52467;40.114;18.306;2023-04-15T02:41:59;11.20;;;2.20;;
42192;SDS011;52467;40.114;18.306;2023-04-15T02:44:28;7.40;;;1.90;;
42192;SDS011;52467;40.114;18.306;2023-04-15T02:46:59;11.73;;;1.77;;
42192;SDS011;52467;40.114;18.306;2023-04-15T02:49:28;7.10;;;1.88;;
42192;SDS011;52467;40.114;18.306;2023-04-15T02:51:57;7.80;;;1.70;;
42192;SDS011;52467;40.114;18.306;2023-04-15T02:54:27;12.23;;;1.67;;
42192;SDS011;52467;40.114;18.306;2023-04-15T02:57:00;7.93;;;1.80;;
42192;SDS011;52467;40.114;18.306;2023-04-15T02:59:28;10.27;;;1.55;;
42192;SDS011;52467;40.114;18.306;2023-04-15T03:01:57;10.80;;;1.77;;
42192;SDS011;52467;40.114;18.306;2023-04-15T03:04:29;7.30;;;1.83;;
42192;SDS011;52467;40.114;18.306;2023-04-15T03:06:58;9.93;;;1.63;;
42192;SDS011;52467;40.114;18.306;2023-04-15T03:09:27;10.77;;;2.47;;
42192;SDS011;52467;40.114;18.306;2023-04-15T03:11:58;12.65;;;1.55;;
42192;SDS011;52467;40.114;18.306;2023-04-15T03:14:26;6.35;;;1.48;;
42192;SDS011;52467;40.114;18.306;2023-04-15T03:16:55;9.53;;;1.73;;
42192;SDS011;52467;40.114;18.306;2023-04-15T03:19:26;11.57;;;1.50;;
42192;SDS011;52467;40.114;18.306;2023-04-15T03:21:54;8.18;;;1.75;;
42192;SDS011;52467;40.114;18.306;2023-04-15T03:24:23;6.83;;;1.50;;
42192;SDS011;52467;40.114;18.306;2023-04-15T03:26:53;11.38;;;2.30;;
42192;SDS011;52467;40.114;18.306;2023-04-15T03:29:23;9.18;;;1.63;;
42192;SDS011;52467;40.114;18.306;2023-04-15T03:31:52;10.15;;;1.63;;
42192;SDS011;52467;40.114;18.306;2023-04-15T03:34:20;10.02;;;1.73;;
42192;SDS011;52467;40.114;18.306;2023-04-15T03:36:49;8.88;;;1.65;;
42192;SDS011;52467;40.114;18.306;2023-04-15T03:39:18;9.75;;;2.40;;
42192;SDS011;52467;40.114;18.306;2023-04-15T03:41:46;7.68;;;1.67;;
42192;SDS011;52467;40.114;18.306;2023-04-15T03:44:15;9.20;;;1.98;;
42192;SDS011;52467;40.114;18.306;2023-04-15T03:46:44;9.70;;;1.55;;
42192;SDS011;52467;40.114;18.306;2023-04-15T03:49:13;8.75;;;1.92;;
42192;SDS011;52467;40.114;18.306;2023-04-15T03:51:41;8.87;;;2.10;;
42192;SDS011;52467;40.114;18.306;2023-04-15T03:54:10;9.73;;;1.75;;
42192;SDS011;52467;40.114;18.306;2023-04-15T03:56:39;9.40;;;1.70;;
42192;SDS011;52467;40.114;18.306;2023-04-15T03:59:08;9.90;;;1.80;;
42192;SDS011;52467;40.114;18.306;2023-04-15T04:01:39;9.60;;;1.80;;
42192;SDS011;52467;40.114;18.306;2023-04-15T04:04:08;8.60;;;1.88;;
42192;SDS011;52467;40.114;18.306;2023-04-15T04:06:36;10.15;;;1.80;;
42192;SDS011;52467;40.114;18.306;2023-04-15T04:09:05;11.88;;;1.60;;
42192;SDS011;52467;40.114;18.306;2023-04-15T04:11:33;8.00;;;1.95;;
42192;SDS011;52467;40.114;18.306;2023-04-15T04:14:02;7.63;;;1.75;;
42192;SDS011;52467;40.114;18.306;2023-04-15T04:16:31;13.13;;;1.95;;
42192;SDS011;52467;40.114;18.306;2023-04-15T04:18:59;7.47;;;1.75;;
42192;SDS011;52467;40.114;18.306;2023-04-15T04:21:28;9.98;;;1.85;;
42192;SDS011;52467;40.114;18.306;2023-04-15T04:23:57;7.40;;;1.83;;
42192;SDS011;52467;40.114;18.306;2023-04-15T04:26:26;9.02;;;1.60;;
42192;SDS011;52467;40.114;18.306;2023-04-15T04:28:54;6.67;;;1.50;;
42192;SDS011;52467;40.114;18.306;2023-04-15T04:31:23;6.70;;;1.70;;
42192;SDS011;52467;40.114;18.306;2023-04-15T04:33:51;8.60;;;2.60;;
42192;SDS011;52467;40.114;18.306;2023-04-15T04:36:20;7.57;;;1.58;;
42192;SDS011;52467;40.114;18.306;2023-04-15T04:38:49;10.33;;;2.00;;
42192;SDS011;52467;40.114;18.306;2023-04-15T04:41:17;10.23;;;2.25;;
42192;SDS011;52467;40.114;18.306;2023-04-15T04:43:46;10.15;;;2.00;;
42192;SDS011;52467;40.114;18.306;2023-04-15T04:46:14;8.48;;;2.03;;
42192;SDS011;52467;40.114;18.306;2023-04-15T04:48:43;9.02;;;2.67;;
42192;SDS011;52467;40.114;18.306;2023-04-15T04:51:13;9.60;;;2.43;;
42192;SDS011;52467;40.114;18.306;2023-04-15T04:53:41;10.32;;;2.47;;
42192;SDS011;52467;40.114;18.306;2023-04-15T04:56:10;11.50;;;2.63;;
42192;SDS011;52467;40.114;18.306;2023-04-15T04:58:39;12.15;;;3.00;;
42192;SDS011;52467;40.114;18.306;2023-04-15T05:01:08;9.07;;;3.08;;
42192;SDS011;52467;40.114;18.306;2023-04-15T05:03:37;16.63;;;2.90;;
42192;SDS011;52467;40.114;18.306;2023-04-15T05:06:05;8.75;;;2.40;;
42192;SDS011;52467;40.114;18.306;2023-04-15T05:08:35;10.13;;;2.55;;
42192;SDS011;52467;40.114;18.306;2023-04-15T05:11:05;9.52;;;2.55;;
42192;SDS011;52467;40.114;18.306;2023-04-15T05:13:34;7.07;;;2.60;;
42192;SDS011;52467;40.114;18.306;2023-04-15T05:16:05;8.82;;;2.50;;
42192;SDS011;52467;40.114;18.306;2023-04-15T05:18:34;7.25;;;2.20;;
42192;SDS011;52467;40.114;18.306;2023-04-15T05:21:03;10.48;;;2.15;;
42192;SDS011;52467;40.114;18.306;2023-04-15T05:23:33;7.75;;;2.28;;
42192;SDS011;52467;40.114;18.306;2023-04-15T05:26:02;7.50;;;1.80;;
42192;SDS011;52467;40.114;18.306;2023-04-15T05:28:31;8.80;;;2.00;;
42192;SDS011;52467;40.114;18.306;2023-04-15T05:30:59;9.57;;;2.05;;
42192;SDS011;52467;40.114;18.306;2023-04-15T05:33:28;10.48;;;1.95;;
42192;SDS011;52467;40.114;18.306;2023-04-15T05:35:58;5.47;;;1.85;;
42192;SDS011;52467;40.114;18.306;2023-04-15T05:38:26;9.80;;;2.30;;
42192;SDS011;52467;40.114;18.306;2023-04-15T05:40:55;4.47;;;2.00;;
42192;SDS011;52467;40.114;18.306;2023-04-15T05:43:23;8.13;;;2.08;;
42192;SDS011;52467;40.114;18.306;2023-04-15T05:45:52;7.35;;;1.80;;
42192;SDS011;52467;40.114;18.306;2023-04-15T05:48:21;5.10;;;1.13;;
42192;SDS011;52467;40.114;18.306;2023-04-15T05:50:49;6.75;;;1.40;;
42192;SDS011;52467;40.114;18.306;2023-04-15T05:53:18;5.13;;;1.50;;
42192;SDS011;52467;40.114;18.306;2023-04-15T05:55:46;7.40;;;1.60;;
42192;SDS011;52467;40.114;18.306;2023-04-15T05:58:15;5.07;;;1.42;;
42192;SDS011;52467;40.114;18.306;2023-04-15T06:00:43;6.43;;;1.50;;
42192;SDS011;52467;40.114;18.306;2023-04-15T06:03:13;6.57;;;1.33;;
42192;SDS011;52467;40.114;18.306;2023-04-15T06:05:41;6.50;;;1.50;;
42192;SDS011;52467;40.114;18.306;2023-04-15T06:08:11;5.22;;;1.55;;
42192;SDS011;52467;40.114;18.306;2023-04-15T06:10:40;8.50;;;3.70;;
42192;SDS011;52467;40.114;18.306;2023-04-15T06:13:08;7.25;;;3.55;;
42192;SDS011;52467;40.114;18.306;2023-04-15T06:15:37;7.03;;;3.27;;
42192;SDS011;52467;40.114;18.306;2023-04-15T06:18:05;9.32;;;2.47;;
42192;SDS011;52467;40.114;18.306;2023-04-15T06:20:34;8.43;;;1.90;;
42192;SDS011;52467;40.114;18.306;2023-04-15T06:23:03;7.65;;;1.60;;
42192;SDS011;52467;40.114;18.306;2023-04-15T06:25:32;6.25;;;1.20;;
42192;SDS011;52467;40.114;18.306;2023-04-15T06:28:02;6.57;;;1.55;;
42192;SDS011;52467;40.114;18.306;2023-04-15T06:30:31;7.20;;;1.57;;
42192;SDS011;52467;40.114;18.306;2023-04-15T06:32:59;6.32;;;1.73;;
42192;SDS011;52467;40.114;18.306;2023-04-15T06:35:28;6.47;;;1.90;;
42192;SDS011;52467;40.114;18.306;2023-04-15T06:37:57;6.87;;;1.60;;
42192;SDS011;52467;40.114;18.306;2023-04-15T06:40:25;6.40;;;2.00;;
42192;SDS011;52467;40.114;18.306;2023-04-15T06:42:54;8.65;;;2.25;;
42192;SDS011;52467;40.114;18.306;2023-04-15T06:45:23;9.00;;;2.10;;
42192;SDS011;52467;40.114;18.306;2023-04-15T06:47:53;10.63;;;3.05;;
42192;SDS011;52467;40.114;18.306;2023-04-15T06:50:22;11.45;;;2.80;;
42192;SDS011;52467;40.114;18.306;2023-04-15T06:52:51;8.00;;;2.90;;
42192;SDS011;52467;40.114;18.306;2023-04-15T06:55:21;9.00;;;2.55;;
42192;SDS011;52467;40.114;18.306;2023-04-15T06:57:50;9.77;;;3.30;;
42192;SDS011;52467;40.114;18.306;2023-04-15T07:00:19;13.00;;;4.15;;
42192;SDS011;52467;40.114;18.306;2023-04-15T07:02:47;13.02;;;3.75;;
42192;SDS011;52467;40.114;18.306;2023-04-15T07:05:16;14.75;;;4.30;;
42192;SDS011;52467;40.114;18.306;2023-04-15T07:07:45;12.57;;;3.65;;
42192;SDS011;52467;40.114;18.306;2023-04-15T07:10:14;11.93;;;3.93;;
42192;SDS011;52467;40.114;18.306;2023-04-15T07:12:43;10.98;;;3.20;;
42192;SDS011;52467;40.114;18.306;2023-04-15T07:15:11;11.85;;;3.33;;
42192;SDS011;52467;40.114;18.306;2023-04-15T07:17:40;9.77;;;3.10;;
42192;SDS011;52467;40.114;18.306;2023-04-15T07:20:10;9.43;;;2.30;;
42192;SDS011;52467;40.114;18.306;2023-04-15T07:22:39;5.88;;;2.45;;
42192;SDS011;52467;40.114;18.306;2023-04-15T07:25:08;10.02;;;1.95;;
42192;SDS011;52467;40.114;18.306;2023-04-15T07:27:36;8.73;;;2.05;;
42192;SDS011;52467;40.114;18.306;2023-04-15T07:30:05;10.52;;;2.72;;
42192;SDS011;52467;40.114;18.306;2023-04-15T07:32:35;8.02;;;2.40;;
42192;SDS011;52467;40.114;18.306;2023-04-15T07:35:03;9.73;;;2.30;;
42192;SDS011;52467;40.114;18.306;2023-04-15T07:37:32;8.57;;;2.15;;
42192;SDS011;52467;40.114;18.306;2023-04-15T07:40:01;9.25;;;2.70;;
42192;SDS011;52467;40.114;18.306;2023-04-15T07:42:33;9.68;;;2.90;;
42192;SDS011;52467;40.114;18.306;2023-04-15T07:45:03;10.13;;;3.08;;
42192;SDS011;52467;40.114;18.306;2023-04-15T07:47:32;9.15;;;2.90;;
42192;SDS011;52467;40.114;18.306;2023-04-15T07:50:01;12.35;;;2.75;;
42192;SDS011;52467;40.114;18.306;2023-04-15T07:52:29;7.00;;;1.73;;
42192;SDS011;52467;40.114;18.306;2023-04-15T07:54:58;6.45;;;1.25;;
42192;SDS011;52467;40.114;18.306;2023-04-15T07:57:26;4.95;;;1.30;;
42192;SDS011;52467;40.114;18.306;2023-04-15T07:59:55;11.30;;;1.55;;
42192;SDS011;52467;40.114;18.306;2023-04-15T08:02:23;5.90;;;1.38;;
42192;SDS011;52467;40.114;18.306;2023-04-15T08:04:52;5.68;;;1.65;;
42192;SDS011;52467;40.114;18.306;2023-04-15T08:07:22;6.70;;;1.55;;
42192;SDS011;52467;40.114;18.306;2023-04-15T08:09:52;8.00;;;1.50;;
42192;SDS011;52467;40.114;18.306;2023-04-15T08:12:20;7.97;;;1.23;;
42192;SDS011;52467;40.114;18.306;2023-04-15T08:14:49;7.32;;;1.20;;
42192;SDS011;52467;40.114;18.306;2023-04-15T08:17:19;5.15;;;1.20;;
42192;SDS011;52467;40.114;18.306;2023-04-15T08:19:47;9.60;;;1.73;;
42192;SDS011;52467;40.114;18.306;2023-04-15T08:22:16;7.80;;;1.80;;
42192;SDS011;52467;40.114;18.306;2023-04-15T08:24:45;6.72;;;1.23;;
42192;SDS011;52467;40.114;18.306;2023-04-15T08:27:14;6.20;;;1.35;;
42192;SDS011;52467;40.114;18.306;2023-04-15T08:29:42;5.38;;;1.25;;
42192;SDS011;52467;40.114;18.306;2023-04-15T08:32:12;7.05;;;1.90;;
42192;SDS011;52467;40.114;18.306;2023-04-15T08:34:41;8.67;;;1.60;;
42192;SDS011;52467;40.114;18.306;2023-04-15T08:37:10;9.90;;;1.77;;
42192;SDS011;52467;40.114;18.306;2023-04-15T08:39:40;8.07;;;1.90;;
42192;SDS011;52467;40.114;18.306;2023-04-15T08:42:10;4.90;;;1.60;;
42192;SDS011;52467;40.114;18.306;2023-04-15T08:44:39;4.97;;;1.60;;
42192;SDS011;52467;40.114;18.306;2023-04-15T08:47:08;6.38;;;1.30;;
42192;SDS011;52467;40.114;18.306;2023-04-15T08:49:38;7.28;;;1.30;;
42192;SDS011;52467;40.114;18.306;2023-04-15T08:52:10;8.43;;;1.60;;
42192;SDS011;52467;40.114;18.306;2023-04-15T08:54:39;7.03;;;1.65;;
42192;SDS011;52467;40.114;18.306;2023-04-15T08:57:08;5.78;;;1.38;;
42192;SDS011;52467;40.114;18.306;2023-04-15T08:59:37;8.53;;;1.57;;
42192;SDS011;52467;40.114;18.306;2023-04-15T09:02:07;6.18;;;1.45;;
42192;SDS011;52467;40.114;18.306;2023-04-15T09:04:36;9.55;;;1.70;;
42192;SDS011;52467;40.114;18.306;2023-04-15T09:07:04;9.48;;;1.67;;
42192;SDS011;52467;40.114;18.306;2023-04-15T09:09:33;3.53;;;1.10;;
42192;SDS011;52467;40.114;18.306;2023-04-15T09:12:04;8.43;;;1.77;;
42192;SDS011;52467;40.114;18.306;2023-04-15T09:14:35;8.50;;;1.85;;
42192;SDS011;52467;40.114;18.306;2023-04-15T09:17:08;4.13;;;1.20;;
42192;SDS011;52467;40.114;18.306;2023-04-15T09:19:38;6.80;;;1.60;;
42192;SDS011;52467;40.114;18.306;2023-04-15T09:22:07;7.57;;;1.38;;
42192;SDS011;52467;40.114;18.306;2023-04-15T09:24:36;5.10;;;1.20;;
42192;SDS011;52467;40.114;18.306;2023-04-15T09:27:06;5.63;;;1.20;;
42192;SDS011;52467;40.114;18.306;2023-04-15T09:29:35;8.40;;;1.67;;
42192;SDS011;52467;40.114;18.306;2023-04-15T09:32:10;7.70;;;1.40;;
42192;SDS011;52467;40.114;18.306;2023-04-15T09:34:41;6.60;;;1.65;;
42192;SDS011;52467;40.114;18.306;2023-04-15T09:37:09;8.25;;;1.25;;
42192;SDS011;52467;40.114;18.306;2023-04-15T09:39:48;6.18;;;1.80;;
42192;SDS011;52467;40.114;18.306;2023-04-15T09:42:18;8.55;;;1.70;;
42192;SDS011;52467;40.114;18.306;2023-04-15T09:44:53;6.60;;;1.40;;
42192;SDS011;52467;40.114;18.306;2023-04-15T09:49:57;7.30;;;1.38;;
42192;SDS011;52467;40.114;18.306;2023-04-15T09:52:27;6.75;;;1.30;;
42192;SDS011;52467;40.114;18.306;2023-04-15T09:54:56;5.85;;;1.40;;
42192;SDS011;52467;40.114;18.306;2023-04-15T09:57:32;6.97;;;1.55;;
42192;SDS011;52467;40.114;18.306;2023-04-15T10:00:03;3.85;;;1.20;;
42192;SDS011;52467;40.114;18.306;2023-04-15T10:02:41;5.53;;;1.40;;
42192;SDS011;52467;40.114;18.306;2023-04-15T10:05:13;4.80;;;1.30;;
42192;SDS011;52467;40.114;18.306;2023-04-15T10:07:43;6.37;;;1.50;;
42192;SDS011;52467;40.114;18.306;2023-04-15T10:10:12;7.55;;;1.88;;
42192;SDS011;52467;40.114;18.306;2023-04-15T10:12:41;8.88;;;1.90;;
42192;SDS011;52467;40.114;18.306;2023-04-15T10:15:13;6.55;;;1.70;;
42192;SDS011;52467;40.114;18.306;2023-04-15T10:17:43;5.20;;;1.42;;
42192;SDS011;52467;40.114;18.306;2023-04-15T10:20:13;7.53;;;1.52;;
42192;SDS011;52467;40.114;18.306;2023-04-15T10:22:42;8.25;;;1.70;;
42192;SDS011;52467;40.114;18.306;2023-04-15T10:25:12;5.93;;;1.70;;
42192;SDS011;52467;40.114;18.306;2023-04-15T10:27:42;8.07;;;1.33;;
42192;SDS011;52467;40.114;18.306;2023-04-15T10:30:11;6.65;;;1.40;;
42192;SDS011;52467;40.114;18.306;2023-04-15T10:32:40;4.35;;;1.05;;
42192;SDS011;52467;40.114;18.306;2023-04-15T10:35:09;7.13;;;1.48;;
42192;SDS011;52467;40.114;18.306;2023-04-15T10:37:38;3.85;;;1.20;;
42192;SDS011;52467;40.114;18.306;2023-04-15T10:40:25;7.35;;;1.60;;
42192;SDS011;52467;40.114;18.306;2023-04-15T10:42:59;7.00;;;1.08;;
42192;SDS011;52467;40.114;18.306;2023-04-15T10:45:33;7.82;;;1.15;;
42192;SDS011;52467;40.114;18.306;2023-04-15T10:48:05;6.68;;;1.20;;
42192;SDS011;52467;40.114;18.306;2023-04-15T10:50:34;6.97;;;1.52;;
42192;SDS011;52467;40.114;18.306;2023-04-15T10:53:05;7.63;;;1.30;;
42192;SDS011;52467;40.114;18.306;2023-04-15T10:55:37;4.88;;;1.23;;
42192;SDS011;52467;40.114;18.306;2023-04-15T10:58:06;6.63;;;1.53;;
42192;SDS011;52467;40.114;18.306;2023-04-15T11:00:37;7.13;;;1.13;;
42192;SDS011;52467;40.114;18.306;2023-04-15T11:03:09;5.10;;;1.00;;
42192;SDS011;52467;40.114;18.306;2023-04-15T11:08:10;7.90;;;1.75;;
42192;SDS011;52467;40.114;18.306;2023-04-15T11:10:49;6.70;;;1.20;;
42192;SDS011;52467;40.114;18.306;2023-04-15T11:13:19;3.65;;;1.20;;
42192;SDS011;52467;40.114;18.306;2023-04-15T11:15:49;4.17;;;0.90;;
42192;SDS011;52467;40.114;18.306;2023-04-15T11:18:22;6.27;;;0.90;;
42192;SDS011;52467;40.114;18.306;2023-04-15T11:20:53;8.90;;;1.10;;
42192;SDS011;52467;40.114;18.306;2023-04-15T11:23:31;2.13;;;0.80;;
42192;SDS011;52467;40.114;18.306;2023-04-15T11:26:01;5.90;;;1.00;;
42192;SDS011;52467;40.114;18.306;2023-04-15T11:28:33;4.78;;;0.88;;
42192;SDS011;52467;40.114;18.306;2023-04-15T11:31:07;3.00;;;0.80;;
42192;SDS011;52467;40.114;18.306;2023-04-15T11:33:52;3.27;;;0.97;;
42192;SDS011;52467;40.114;18.306;2023-04-15T11:36:22;7.75;;;1.15;;
42192;SDS011;52467;40.114;18.306;2023-04-15T11:38:54;4.72;;;0.80;;
42192;SDS011;52467;40.114;18.306;2023-04-15T11:41:24;3.30;;;0.90;;
42192;SDS011;52467;40.114;18.306;2023-04-15T11:43:52;3.10;;;1.20;;
42192;SDS011;52467;40.114;18.306;2023-04-15T11:46:27;5.75;;;1.33;;
42192;SDS011;52467;40.114;18.306;2023-04-15T11:48:57;4.32;;;0.93;;
42192;SDS011;52467;40.114;18.306;2023-04-15T11:51:33;2.92;;;0.80;;
42192;SDS011;52467;40.114;18.306;2023-04-15T11:54:00;4.53;;;0.80;;
42192;SDS011;52467;40.114;18.306;2023-04-15T11:56:29;4.05;;;0.70;;
42192;SDS011;52467;40.114;18.306;2023-04-15T11:58:57;4.32;;;1.05;;
42192;SDS011;52467;40.114;18.306;2023-04-15T12:01:32;3.60;;;1.10;;
42192;SDS011;52467;40.114;18.306;2023-04-15T12:04:12;4.72;;;1.27;;
42192;SDS011;52467;40.114;18.306;2023-04-15T12:06:40;4.03;;;1.15;;
42192;SDS011;52467;40.114;18.306;2023-04-15T12:09:09;5.68;;;1.20;;
42192;SDS011;52467;40.114;18.306;2023-04-15T12:14:10;4.00;;;1.10;;
42192;SDS011;52467;40.114;18.306;2023-04-15T12:16:39;5.13;;;1.10;;
42192;SDS011;52467;40.114;18.306;2023-04-15T12:19:12;3.75;;;0.80;;
42192;SDS011;52467;40.114;18.306;2023-04-15T12:21:42;4.72;;;1.20;;
42192;SDS011;52467;40.114;18.306;2023-04-15T12:24:11;3.60;;;0.88;;
42192;SDS011;52467;40.114;18.306;2023-04-15T12:29:09;5.75;;;1.00;;
42192;SDS011;52467;40.114;18.306;2023-04-15T12:31:45;5.20;;;1.00;;
42192;SDS011;52467;40.114;18.306;2023-04-15T12:34:14;4.72;;;1.13;;
42192;SDS011;52467;40.114;18.306;2023-04-15T12:36:43;4.23;;;0.80;;
42192;SDS011;52467;40.114;18.306;2023-04-15T12:39:10;6.22;;;1.20;;
42192;SDS011;52467;40.114;18.306;2023-04-15T12:41:38;3.78;;;0.82;;
42192;SDS011;52467;40.114;18.306;2023-04-15T12:44:05;3.93;;;0.80;;
42192;SDS011;52467;40.114;18.306;2023-04-15T12:46:32;7.65;;;1.20;;
42192;SDS011;52467;40.114;18.306;2023-04-15T12:49:00;3.95;;;1.05;;
42192;SDS011;52467;40.114;18.306;2023-04-15T12:51:28;4.68;;;0.80;;
42192;SDS011;52467;40.114;18.306;2023-04-15T12:53:56;3.55;;;1.08;;
42192;SDS011;52467;40.114;18.306;2023-04-15T12:56:24;3.97;;;0.70;;
42192;SDS011;52467;40.114;18.306;2023-04-15T12:58:51;3.90;;;0.70;;
42192;SDS011;52467;40.114;18.306;2023-04-15T13:01:19;3.92;;;1.00;;
42192;SDS011;52467;40.114;18.306;2023-04-15T13:03:46;2.60;;;0.70;;
42192;SDS011;52467;40.114;18.306;2023-04-15T13:06:14;3.88;;;1.00;;
42192;SDS011;52467;40.114;18.306;2023-04-15T13:08:41;7.43;;;1.05;;
42192;SDS011;52467;40.114;18.306;2023-04-15T13:11:17;4.53;;;0.90;;
42192;SDS011;52467;40.114;18.306;2023-04-15T13:13:45;2.83;;;0.70;;
42192;SDS011;52467;40.114;18.306;2023-04-15T13:16:13;4.82;;;0.95;;
42192;SDS011;52467;40.114;18.306;2023-04-15T13:18:40;3.53;;;0.93;;
42192;SDS011;52467;40.114;18.306;2023-04-15T13:21:08;7.30;;;1.63;;
42192;SDS011;52467;40.114;18.306;2023-04-15T13:23:36;5.70;;;1.33;;
42192;SDS011;52467;40.114;18.306;2023-04-15T13:26:03;3.58;;;1.10;;
42192;SDS011;52467;40.114;18.306;2023-04-15T13:28:31;4.05;;;0.98;;
42192;SDS011;52467;40.114;18.306;2023-04-15T13:30:58;7.97;;;1.85;;
42192;SDS011;52467;40.114;18.306;2023-04-15T13:33:26;2.77;;;1.10;;
42192;SDS011;52467;40.114;18.306;2023-04-15T13:35:54;4.35;;;1.10;;
42192;SDS011;52467;40.114;18.306;2023-04-15T13:38:21;5.63;;;1.30;;
42192;SDS011;52467;40.114;18.306;2023-04-15T13:40:50;7.37;;;1.30;;
42192;SDS011;52467;40.114;18.306;2023-04-15T13:43:17;3.83;;;0.80;;
42192;SDS011;52467;40.114;18.306;2023-04-15T13:45:45;8.13;;;1.38;;
42192;SDS011;52467;40.114;18.306;2023-04-15T13:48:12;5.38;;;1.27;;
42192;SDS011;52467;40.114;18.306;2023-04-15T13:50:40;5.57;;;1.17;;
42192;SDS011;52467;40.114;18.306;2023-04-15T13:53:11;5.32;;;1.17;;
42192;SDS011;52467;40.114;18.306;2023-04-15T13:55:38;6.95;;;1.27;;
42192;SDS011;52467;40.114;18.306;2023-04-15T13:58:08;4.80;;;1.10;;
42192;SDS011;52467;40.114;18.306;2023-04-15T14:00:36;6.15;;;1.40;;
42192;SDS011;52467;40.114;18.306;2023-04-15T14:03:04;5.90;;;1.40;;
42192;SDS011;52467;40.114;18.306;2023-04-15T14:05:31;6.63;;;1.52;;
42192;SDS011;52467;40.114;18.306;2023-04-15T14:07:59;6.90;;;1.40;;
42192;SDS011;52467;40.114;18.306;2023-04-15T14:10:26;5.95;;;1.38;;
42192;SDS011;52467;40.114;18.306;2023-04-15T14:12:54;6.20;;;1.25;;
42192;SDS011;52467;40.114;18.306;2023-04-15T14:15:21;5.20;;;1.02;;
42192;SDS011;52467;40.114;18.306;2023-04-15T14:17:48;5.28;;;1.25;;
42192;SDS011;52467;40.114;18.306;2023-04-15T14:20:16;5.35;;;1.67;;
42192;SDS011;52467;40.114;18.306;2023-04-15T14:22:43;6.22;;;1.20;;
42192;SDS011;52467;40.114;18.306;2023-04-15T14:25:10;6.45;;;1.80;;
42192;SDS011;52467;40.114;18.306;2023-04-15T14:27:42;6.45;;;1.45;;
42192;SDS011;52467;40.114;18.306;2023-04-15T14:30:10;4.17;;;1.17;;
42192;SDS011;52467;40.114;18.306;2023-04-15T14:32:38;5.05;;;1.40;;
42192;SDS011;52467;40.114;18.306;2023-04-15T14:35:05;5.57;;;1.30;;
42192;SDS011;52467;40.114;18.306;2023-04-15T14:37:33;4.97;;;1.40;;
42192;SDS011;52467;40.114;18.306;2023-04-15T14:40:00;6.13;;;1.67;;
42192;SDS011;52467;40.114;18.306;2023-04-15T14:42:28;6.17;;;1.53;;
42192;SDS011;52467;40.114;18.306;2023-04-15T14:44:55;3.10;;;1.03;;
42192;SDS011;52467;40.114;18.306;2023-04-15T14:47:22;7.60;;;1.80;;
42192;SDS011;52467;40.114;18.306;2023-04-15T14:49:50;5.10;;;1.50;;
42192;SDS011;52467;40.114;18.306;2023-04-15T14:52:17;7.45;;;1.80;;